Terminal Aerodrome Forecast
Issued by NWS Charleston, WV

Current Version | Previous Version | Text Only | Print | Product List | Glossary Off
Versions: 1 2 3 4 5 6 7 8 9 10 11 12 13 14 15 16 17 18 19 20

000
FTUS41 KRLX 030800 AAA
TAFHTS
TAF AMD
KHTS 030855Z 0309/0406 08005KT P6SM BKN250
     FM031200 10005KT P6SM -FZRA OVC080
     FM031400 13005KT P6SM OVC040
     FM031800 16007KT P6SM OVC025
     FM032000 18010G16KT P6SM OVC010
     FM040100 20009G19KT 5SM -RA OVC015=

USA.gov is the U.S. government's official web portal to all federal, state and local government web resources and services.